createdAt,value
2022-10-06T00:01:27.348Z,1.33
2022-10-06T00:03:53.932Z,1.10
2022-10-06T00:06:20.407Z,1.50
2022-10-06T00:08:47.328Z,1.10
2022-10-06T00:11:14.927Z,1.10
2022-10-06T00:13:41.501Z,1.20
2022-10-06T00:16:17.458Z,1.00
2022-10-06T00:18:44.347Z,1.23
2022-10-06T00:21:10.837Z,1.15
2022-10-06T00:23:37.547Z,1.00
2022-10-06T00:26:04.038Z,1.15
2022-10-06T00:28:30.882Z,0.93
2022-10-06T00:31:01.261Z,0.90
2022-10-06T00:33:27.779Z,0.90
2022-10-06T00:35:58.221Z,0.80
2022-10-06T00:38:24.833Z,0.90
2022-10-06T00:40:51.425Z,1.00
2022-10-06T00:43:41.116Z,0.90
2022-10-06T00:46:08.805Z,0.70
2022-10-06T00:48:35.308Z,0.50
2022-10-06T00:51:01.788Z,0.75
2022-10-06T00:53:28.234Z,0.90
2022-10-06T00:55:54.703Z,0.50
2022-10-06T00:58:21.406Z,0.40
2022-10-06T01:00:47.916Z,0.50
2022-10-06T01:03:24.846Z,0.50
2022-10-06T01:05:51.481Z,0.52
2022-10-06T01:08:17.960Z,0.45
2022-10-06T01:10:44.447Z,0.55
2022-10-06T01:13:11.225Z,0.80
2022-10-06T01:15:39.769Z,0.30
2022-10-06T01:18:09.643Z,0.45
2022-10-06T01:20:38.371Z,0.40
2022-10-06T01:23:05.788Z,0.38
2022-10-06T01:25:33.019Z,0.50
2022-10-06T01:27:59.511Z,0.65
2022-10-06T01:30:28.394Z,0.50
2022-10-06T01:32:54.843Z,0.40
2022-10-06T01:35:21.306Z,0.52
2022-10-06T01:37:47.801Z,0.30
2022-10-06T01:40:14.327Z,0.30
2022-10-06T01:42:40.809Z,0.28
2022-10-06T01:45:07.685Z,0.22
2022-10-06T01:47:34.660Z,0.40
2022-10-06T01:50:01.126Z,0.30
2022-10-06T01:52:27.632Z,0.40
2022-10-06T01:54:54.111Z,0.30
2022-10-06T01:57:21.379Z,0.40
2022-10-06T01:59:51.546Z,0.30
2022-10-06T02:02:21.020Z,0.30
2022-10-06T02:04:47.724Z,0.30
2022-10-06T02:07:14.189Z,0.20
2022-10-06T02:09:40.625Z,0.40
2022-10-06T02:12:07.107Z,0.50
2022-10-06T02:14:34.739Z,0.40
2022-10-06T02:17:01.368Z,0.30
2022-10-06T02:19:27.813Z,0.38
2022-10-06T02:21:54.533Z,0.40
2022-10-06T02:24:21.002Z,0.40
2022-10-06T02:26:47.473Z,0.40
2022-10-06T02:29:13.956Z,0.50
2022-10-06T02:31:40.444Z,0.50
2022-10-06T02:34:06.919Z,0.50
2022-10-06T02:36:33.386Z,0.40
2022-10-06T02:38:59.825Z,0.40
2022-10-06T02:41:26.299Z,0.40
2022-10-06T02:43:55.125Z,0.35
2022-10-06T02:46:22.333Z,0.80
2022-10-06T02:48:48.898Z,1.20
2022-10-06T02:51:17.060Z,1.00
2022-10-06T02:53:44.149Z,1.70
2022-10-06T02:56:12.337Z,1.48
2022-10-06T02:58:43.445Z,1.40
2022-10-06T03:01:16.854Z,1.20
2022-10-06T03:03:43.410Z,1.35
2022-10-06T03:06:24.627Z,1.23
2022-10-06T03:09:01.336Z,1.73
2022-10-06T03:11:29.375Z,1.60
2022-10-06T03:13:56.034Z,1.35
2022-10-06T03:16:24.303Z,1.45
2022-10-06T03:18:51.703Z,1.75
2022-10-06T03:21:18.873Z,1.80
2022-10-06T03:23:49.063Z,1.42
2022-10-06T03:26:17.557Z,1.40
2022-10-06T03:28:44.698Z,1.58
2022-10-06T03:31:11.318Z,1.90
2022-10-06T03:33:37.785Z,1.38
2022-10-06T03:36:14.928Z,1.55
2022-10-06T03:38:41.469Z,1.52
2022-10-06T03:41:13.008Z,1.55
2022-10-06T03:43:39.975Z,1.25
2022-10-06T03:46:06.653Z,1.67
2022-10-06T03:48:34.296Z,1.33
2022-10-06T03:51:05.802Z,1.42
2022-10-06T03:53:32.662Z,1.58
2022-10-06T03:56:07.034Z,1.20
2022-10-06T03:58:37.643Z,1.13
2022-10-06T04:01:07.783Z,1.13
2022-10-06T04:03:34.740Z,1.30
2022-10-06T04:06:02.646Z,1.10
2022-10-06T04:08:29.761Z,1.30
2022-10-06T04:11:02.537Z,1.45
2022-10-06T04:13:29.181Z,1.48
2022-10-06T04:15:56.150Z,1.05
2022-10-06T04:18:22.623Z,1.10
2022-10-06T04:20:49.166Z,0.85
2022-10-06T04:23:16.219Z,0.80
2022-10-06T04:25:43.258Z,0.95
2022-10-06T04:28:11.997Z,0.93
2022-10-06T04:30:38.491Z,0.80
2022-10-06T04:33:07.315Z,0.98
2022-10-06T04:35:33.784Z,1.00
2022-10-06T04:38:00.234Z,0.90
2022-10-06T04:40:26.687Z,0.95
2022-10-06T04:42:53.444Z,1.27
2022-10-06T04:45:19.886Z,0.90
2022-10-06T04:47:48.500Z,1.20
2022-10-06T04:50:14.942Z,0.88
2022-10-06T04:52:41.435Z,0.70
2022-10-06T04:55:08.294Z,1.38
2022-10-06T04:57:34.752Z,1.13
2022-10-06T05:00:19.468Z,0.70
2022-10-06T05:02:46.500Z,1.00
2022-10-06T05:05:12.971Z,0.80
2022-10-06T05:07:39.494Z,0.77
2022-10-06T05:10:06.160Z,0.95
2022-10-06T05:12:32.649Z,0.80
2022-10-06T05:14:59.663Z,0.90
2022-10-06T05:17:26.131Z,0.88
2022-10-06T05:19:52.627Z,0.50
2022-10-06T05:22:19.083Z,0.63
2022-10-06T05:24:45.555Z,0.70
2022-10-06T05:27:12.375Z,0.75
2022-10-06T05:29:39.267Z,0.77
2022-10-06T05:32:05.858Z,0.60
2022-10-06T05:34:32.347Z,0.70
2022-10-06T05:36:58.815Z,0.80
2022-10-06T05:39:25.298Z,0.70
2022-10-06T05:41:51.787Z,0.77
2022-10-06T05:44:18.238Z,0.65
2022-10-06T05:46:44.726Z,1.10
2022-10-06T05:49:12.862Z,0.63
2022-10-06T05:51:42.116Z,1.00
2022-10-06T05:54:08.595Z,0.90
2022-10-06T05:56:36.943Z,0.50
2022-10-06T05:59:03.599Z,0.60
2022-10-06T06:01:31.665Z,0.90
2022-10-06T06:04:06.430Z,0.70
2022-10-06T06:06:50.893Z,0.80
2022-10-06T06:09:18.502Z,0.70
2022-10-06T06:11:46.830Z,0.70
2022-10-06T06:14:15.279Z,0.80
2022-10-06T06:16:42.136Z,0.90
2022-10-06T06:19:09.991Z,0.80
2022-10-06T06:21:36.600Z,0.95
2022-10-06T06:24:03.612Z,0.60
2022-10-06T06:26:31.741Z,0.70
2022-10-06T06:29:06.297Z,0.60
2022-10-06T06:31:36.916Z,0.70
2022-10-06T06:34:04.976Z,1.10
2022-10-06T06:36:36.839Z,0.70
2022-10-06T06:39:05.311Z,0.93
2022-10-06T06:41:33.383Z,0.88
2022-10-06T06:44:02.607Z,0.80
2022-10-06T06:46:32.194Z,0.77
2022-10-06T06:49:04.258Z,0.80
2022-10-06T06:51:34.531Z,0.60
2022-10-06T06:54:02.427Z,0.70
2022-10-06T06:56:34.956Z,0.90
2022-10-06T06:59:02.649Z,0.70
2022-10-06T07:01:29.176Z,0.80
2022-10-06T07:03:57.898Z,0.68
2022-10-06T07:06:28.595Z,0.60
2022-10-06T07:08:56.119Z,0.52
2022-10-06T07:11:30.157Z,0.80
2022-10-06T07:16:47.504Z,0.60
2022-10-06T07:19:32.888Z,0.68
2022-10-06T07:22:19.189Z,0.68
2022-10-06T07:25:04.718Z,0.80
2022-10-06T07:27:31.738Z,0.68
2022-10-06T07:29:58.190Z,1.17
2022-10-06T07:32:25.509Z,1.00
2022-10-06T07:34:52.447Z,1.17
2022-10-06T07:37:19.326Z,1.05
2022-10-06T07:39:47.912Z,1.42
2022-10-06T07:42:15.110Z,1.38
2022-10-06T07:44:41.927Z,1.13
2022-10-06T07:47:08.671Z,0.90
2022-10-06T07:49:35.189Z,0.98
2022-10-06T07:52:02.541Z,1.70
2022-10-06T07:54:29.096Z,1.33
2022-10-06T07:56:55.575Z,1.98
2022-10-06T07:59:22.142Z,2.15
2022-10-06T08:01:51.050Z,1.65
2022-10-06T08:04:17.586Z,1.60
2022-10-06T08:06:44.469Z,1.40
2022-10-06T08:09:10.928Z,1.63
2022-10-06T08:11:37.386Z,1.40
2022-10-06T08:14:03.833Z,1.92
2022-10-06T08:16:30.542Z,2.20
2022-10-06T08:18:58.051Z,1.30
2022-10-06T08:21:26.234Z,1.70
2022-10-06T08:23:53.081Z,1.65
2022-10-06T08:26:20.355Z,2.00
2022-10-06T08:28:48.401Z,1.88
2022-10-06T08:31:15.854Z,1.95
2022-10-06T08:33:42.976Z,1.77
2022-10-06T08:36:11.230Z,1.80
2022-10-06T08:38:37.875Z,1.90
2022-10-06T08:41:17.227Z,1.50
2022-10-06T08:43:46.039Z,2.00
2022-10-06T08:46:14.372Z,1.80
2022-10-06T08:48:40.834Z,2.05
2022-10-06T08:51:31.924Z,1.92
2022-10-06T08:54:16.320Z,1.92
2022-10-06T08:59:16.193Z,1.80
2022-10-06T09:01:47.726Z,1.80
2022-10-06T09:04:28.466Z,1.50
2022-10-06T09:07:15.365Z,2.00
2022-10-06T09:09:59.913Z,1.67
2022-10-06T09:12:35.615Z,1.90
2022-10-06T09:15:14.126Z,2.10
2022-10-06T09:17:47.189Z,1.65
2022-10-06T09:20:30.374Z,1.25
2022-10-06T09:22:56.838Z,1.67
2022-10-06T09:25:31.387Z,1.92
2022-10-06T09:28:01.239Z,1.95
2022-10-06T09:30:29.381Z,1.95
2022-10-06T09:33:00.204Z,2.00
2022-10-06T09:35:30.966Z,1.60
2022-10-06T09:38:08.559Z,1.80
2022-10-06T09:40:42.291Z,1.95
2022-10-06T09:43:35.296Z,1.95
2022-10-06T09:46:28.755Z,2.10
2022-10-06T09:49:26.426Z,1.75
2022-10-06T09:51:59.200Z,2.20
2022-10-06T09:54:26.304Z,1.98
2022-10-06T09:56:55.931Z,2.15
2022-10-06T09:59:39.811Z,1.80
2022-10-06T10:04:51.440Z,1.75
2022-10-06T10:07:29.435Z,1.75
2022-10-06T10:10:22.823Z,1.33
2022-10-06T10:13:00.708Z,2.10
2022-10-06T10:15:40.845Z,1.70
2022-10-06T10:18:17.303Z,1.55
2022-10-06T10:20:58.597Z,1.73
2022-10-06T10:23:31.599Z,1.65
2022-10-06T10:26:09.187Z,2.08
2022-10-06T10:29:11.346Z,1.88
2022-10-06T10:31:48.332Z,1.98
2022-10-06T10:34:36.572Z,1.63
2022-10-06T10:37:12.755Z,1.95
2022-10-06T10:39:46.250Z,2.05
2022-10-06T10:42:41.402Z,1.83
2022-10-06T10:45:16.292Z,1.90
2022-10-06T10:47:44.668Z,2.35
2022-10-06T10:50:32.104Z,2.00
2022-10-06T10:53:03.046Z,2.03
2022-10-06T10:55:47.940Z,1.50
2022-10-06T10:58:19.388Z,1.75
2022-10-06T11:00:47.801Z,1.83
2022-10-06T11:03:14.357Z,1.52
2022-10-06T11:05:55.012Z,1.60
2022-10-06T11:08:33.750Z,1.30
2022-10-06T11:11:01.331Z,1.90
2022-10-06T11:13:33.947Z,1.70
2022-10-06T11:16:24.946Z,1.80
2022-10-06T11:19:29.895Z,1.80
2022-10-06T11:24:45.180Z,1.88
2022-10-06T11:27:33.374Z,1.35
2022-10-06T11:30:03.078Z,1.45
2022-10-06T11:33:01.563Z,1.90
2022-10-06T11:35:37.360Z,1.60
2022-10-06T11:38:23.909Z,1.50
2022-10-06T11:41:06.216Z,1.80
2022-10-06T11:43:42.143Z,1.63
2022-10-06T11:46:15.357Z,1.80
2022-10-06T11:48:42.758Z,1.75
2022-10-06T11:51:24.977Z,1.30
2022-10-06T11:53:52.299Z,1.70
2022-10-06T11:56:18.956Z,1.50
2022-10-06T11:58:51.962Z,1.70
2022-10-06T12:01:33.778Z,1.80
2022-10-06T12:04:09.120Z,1.70
2022-10-06T12:06:45.154Z,1.25
2022-10-06T12:09:24.149Z,1.50
2022-10-06T12:12:00.550Z,1.40
2022-10-06T12:17:55.927Z,1.57
2022-10-06T12:20:47.366Z,1.70
2022-10-06T12:23:18.853Z,1.70
2022-10-06T12:25:59.906Z,1.88
2022-10-06T12:28:55.966Z,1.58
2022-10-06T12:31:41.194Z,1.65
2022-10-06T12:34:39.829Z,1.50
2022-10-06T12:37:31.408Z,1.52
2022-10-06T12:40:35.442Z,1.80
2022-10-06T12:43:23.241Z,1.70
2022-10-06T12:45:55.978Z,1.77
2022-10-06T12:48:53.775Z,1.40
2022-10-06T12:51:45.907Z,1.67
2022-10-06T12:54:20.356Z,2.40
2022-10-06T12:56:58.698Z,1.73
2022-10-06T12:59:26.099Z,1.33
2022-10-06T13:01:54.964Z,1.63
2022-10-06T13:04:34.760Z,1.60
2022-10-06T13:07:25.794Z,1.90
2022-10-06T13:09:55.373Z,1.73
2022-10-06T13:12:32.183Z,1.70
2022-10-06T13:15:24.119Z,1.40
2022-10-06T13:17:57.192Z,1.30
2022-10-06T13:20:40.884Z,1.92
2022-10-06T13:23:37.673Z,1.48
2022-10-06T13:26:05.666Z,1.55
2022-10-06T13:28:44.230Z,1.70
2022-10-06T13:31:19.048Z,1.75
2022-10-06T13:33:46.531Z,1.58
2022-10-06T13:36:13.421Z,1.80
2022-10-06T13:38:41.231Z,1.50
2022-10-06T13:41:38.497Z,1.85
2022-10-06T13:44:11.052Z,1.92
2022-10-06T13:46:45.865Z,2.05
2022-10-06T13:49:22.393Z,1.70
2022-10-06T13:51:53.128Z,1.80
2022-10-06T13:54:25.463Z,1.80
2022-10-06T13:56:51.959Z,1.80
2022-10-06T13:59:31.484Z,1.48
2022-10-06T14:02:15.465Z,1.77
2022-10-06T14:04:42.094Z,1.77
2022-10-06T14:07:10.513Z,1.63
2022-10-06T14:09:36.972Z,1.83
2022-10-06T14:12:06.759Z,1.63
2022-10-06T14:14:33.243Z,1.60
2022-10-06T14:16:59.721Z,1.40
2022-10-06T14:19:32.950Z,1.85
2022-10-06T14:21:59.728Z,1.40
2022-10-06T14:24:28.276Z,2.03
2022-10-06T14:26:59.806Z,1.75
2022-10-06T14:29:26.593Z,1.60
2022-10-06T14:31:53.170Z,1.55
2022-10-06T14:34:20.694Z,1.60
2022-10-06T14:36:51.290Z,1.85
2022-10-06T14:39:17.770Z,1.77
2022-10-06T14:41:45.410Z,1.42
2022-10-06T14:44:12.990Z,1.75
2022-10-06T14:46:41.163Z,1.60
2022-10-06T14:49:08.525Z,1.60
2022-10-06T14:51:37.133Z,1.83
2022-10-06T14:54:04.667Z,1.55
2022-10-06T14:56:32.505Z,1.50
2022-10-06T14:59:04.634Z,1.40
2022-10-06T15:01:31.880Z,1.20
2022-10-06T15:04:01.796Z,1.58
2022-10-06T15:06:47.268Z,1.50
2022-10-06T15:09:13.858Z,1.83
2022-10-06T15:11:40.604Z,1.35
2022-10-06T15:14:08.574Z,1.38
2022-10-06T15:16:35.934Z,1.40
2022-10-06T15:19:05.443Z,1.95
2022-10-06T15:21:35.120Z,1.90
2022-10-06T15:24:04.413Z,1.83
2022-10-06T15:26:49.775Z,1.88
2022-10-06T15:29:16.558Z,1.85
2022-10-06T15:31:44.645Z,1.50
2022-10-06T15:34:12.959Z,1.65
2022-10-06T15:36:40.881Z,1.85
2022-10-06T15:39:07.242Z,2.00
2022-10-06T15:41:37.589Z,3.00
2022-10-06T15:44:04.331Z,3.75
2022-10-06T15:46:39.797Z,3.90
2022-10-06T15:49:10.871Z,4.18
2022-10-06T15:51:50.367Z,4.05
2022-10-06T15:54:20.396Z,3.83
2022-10-06T15:56:47.797Z,3.85
2022-10-06T15:59:15.128Z,3.88
2022-10-06T16:01:46.900Z,3.92
2022-10-06T16:04:20.927Z,3.05
2022-10-06T16:06:51.241Z,4.38
2022-10-06T16:09:18.777Z,3.90
2022-10-06T16:11:46.950Z,3.35
2022-10-06T16:14:13.704Z,3.53
2022-10-06T16:16:43.698Z,3.50
2022-10-06T16:19:12.279Z,3.33
2022-10-06T16:21:39.082Z,3.15
2022-10-06T16:24:05.613Z,2.83
2022-10-06T16:26:32.181Z,2.97
2022-10-06T16:28:58.690Z,3.22
2022-10-06T16:31:25.194Z,2.83
2022-10-06T16:33:51.831Z,3.20
2022-10-06T16:36:18.396Z,2.88
2022-10-06T16:38:44.983Z,2.97
2022-10-06T16:41:11.630Z,3.20
2022-10-06T16:43:40.364Z,3.00
2022-10-06T16:46:17.354Z,2.50
2022-10-06T16:48:45.088Z,2.40
2022-10-06T16:51:31.261Z,2.75
2022-10-06T16:53:59.071Z,2.50
2022-10-06T16:56:27.016Z,2.15
2022-10-06T16:59:05.400Z,2.17
2022-10-06T17:01:34.443Z,2.30
2022-10-06T17:04:11.225Z,2.38
2022-10-06T17:06:39.716Z,2.08
2022-10-06T17:09:08.206Z,1.88
2022-10-06T17:11:35.307Z,2.17
2022-10-06T17:14:01.799Z,1.90
2022-10-06T17:16:29.706Z,1.63
2022-10-06T17:18:57.075Z,2.60
2022-10-06T17:21:45.115Z,2.08
2022-10-06T17:24:10.496Z,2.22
2022-10-06T17:26:38.487Z,1.80
2022-10-06T17:29:06.798Z,2.08
2022-10-06T17:31:35.764Z,1.85
2022-10-06T17:34:12.447Z,1.95
2022-10-06T17:36:39.592Z,1.70
2022-10-06T17:39:06.546Z,1.70
2022-10-06T17:41:40.432Z,1.77
2022-10-06T17:44:08.331Z,1.60
2022-10-06T17:46:37.567Z,1.80
2022-10-06T17:49:07.423Z,1.70
2022-10-06T17:51:34.565Z,2.00
2022-10-06T17:54:01.677Z,2.00
2022-10-06T17:56:37.761Z,1.48
2022-10-06T17:59:05.987Z,1.75
2022-10-06T18:01:33.342Z,1.38
2022-10-06T18:04:04.071Z,1.98
2022-10-06T18:06:32.081Z,2.50
2022-10-06T18:09:02.324Z,2.80
2022-10-06T18:11:33.122Z,2.83
2022-10-06T18:14:00.440Z,3.30
2022-10-06T18:16:29.619Z,2.10
2022-10-06T18:18:56.164Z,2.30
2022-10-06T18:21:24.304Z,2.47
2022-10-06T18:23:50.890Z,2.03
2022-10-06T18:26:18.478Z,2.10
2022-10-06T18:28:45.927Z,2.42
2022-10-06T18:31:15.079Z,2.38
2022-10-06T18:35:57.573Z,2.25
2022-10-06T18:36:29.219Z,1.90
2022-10-06T18:38:57.645Z,2.28
2022-10-06T18:41:25.132Z,1.80
2022-10-06T18:43:51.624Z,2.00
2022-10-06T18:46:36.784Z,2.20
2022-10-06T18:49:15.739Z,2.30
2022-10-06T18:51:43.778Z,1.90
2022-10-06T18:54:13.281Z,1.83
2022-10-06T18:56:39.778Z,2.00
2022-10-06T18:59:13.065Z,1.88
2022-10-06T19:01:41.194Z,2.38
2022-10-06T19:04:09.932Z,1.92
2022-10-06T19:06:37.613Z,1.50
2022-10-06T19:09:04.919Z,2.20
2022-10-06T19:11:41.879Z,1.75
2022-10-06T19:14:08.971Z,1.90
2022-10-06T19:16:35.791Z,1.67
2022-10-06T19:19:10.756Z,2.28
2022-10-06T19:21:43.713Z,1.90
2022-10-06T19:24:12.206Z,1.75
2022-10-06T19:26:42.391Z,1.80
2022-10-06T19:29:13.256Z,1.42
2022-10-06T19:31:41.770Z,3.40
2022-10-06T19:34:10.945Z,3.55
2022-10-06T19:36:38.262Z,5.45
2022-10-06T19:39:11.093Z,4.22
2022-10-06T19:41:57.094Z,4.32
2022-10-06T19:44:24.406Z,4.60
2022-10-06T19:46:50.969Z,3.80
2022-10-06T19:49:17.750Z,3.88
2022-10-06T19:51:44.207Z,6.10
2022-10-06T19:54:11.607Z,8.30
2022-10-06T19:56:40.128Z,7.55
2022-10-06T19:59:06.623Z,8.32
2022-10-06T20:01:33.202Z,9.57
2022-10-06T20:04:01.369Z,11.20
2022-10-06T20:06:28.212Z,10.30
2022-10-06T20:08:55.510Z,11.45
2022-10-06T20:11:22.053Z,11.68
2022-10-06T20:13:48.543Z,10.40
2022-10-06T20:16:18.518Z,9.65
2022-10-06T20:18:46.563Z,10.40
2022-10-06T20:21:16.494Z,9.98
2022-10-06T20:23:56.325Z,10.60
2022-10-06T20:26:24.692Z,9.52
2022-10-06T20:28:51.199Z,9.65
2022-10-06T20:31:22.943Z,9.95
2022-10-06T20:33:50.264Z,10.10
2022-10-06T20:36:17.789Z,8.48
2022-10-06T20:39:03.620Z,9.27
2022-10-06T20:41:30.879Z,9.27
2022-10-06T20:43:57.932Z,9.02
2022-10-06T20:46:25.286Z,9.93
2022-10-06T20:48:51.905Z,9.73
2022-10-06T20:51:18.473Z,9.15
2022-10-06T20:53:45.253Z,9.15
2022-10-06T20:56:11.811Z,9.60
2022-10-06T20:58:38.171Z,10.18
2022-10-06T21:01:06.238Z,11.73
2022-10-06T21:03:34.354Z,11.75
2022-10-06T21:06:01.297Z,11.10
2022-10-06T21:08:28.011Z,9.68
2022-10-06T21:10:58.677Z,11.13
2022-10-06T21:13:25.379Z,9.75
2022-10-06T21:15:52.076Z,9.32
2022-10-06T21:18:18.889Z,9.30
2022-10-06T21:20:54.825Z,10.50
2022-10-06T21:23:21.640Z,9.63
2022-10-06T21:25:48.284Z,9.10
2022-10-06T21:28:14.978Z,8.52
2022-10-06T21:30:44.229Z,6.30
2022-10-06T21:33:11.133Z,6.38
2022-10-06T21:35:37.737Z,6.30
2022-10-06T21:38:04.627Z,5.13
2022-10-06T21:40:31.224Z,4.97
2022-10-06T21:42:57.827Z,5.13
2022-10-06T21:45:29.570Z,5.18
2022-10-06T21:47:58.893Z,4.97
2022-10-06T21:50:25.517Z,4.55
2022-10-06T21:52:52.164Z,4.40
2022-10-06T21:55:18.760Z,3.78
2022-10-06T21:57:45.860Z,4.35
2022-10-06T22:00:13.297Z,3.60
2022-10-06T22:02:40.002Z,4.10
2022-10-06T22:05:06.858Z,3.80
2022-10-06T22:07:33.465Z,4.28
2022-10-06T22:10:00.073Z,3.90
2022-10-06T22:12:26.697Z,3.72
2022-10-06T22:14:54.862Z,3.47
2022-10-06T22:17:21.517Z,3.20
2022-10-06T22:19:48.107Z,3.50
2022-10-06T22:22:14.716Z,2.53
2022-10-06T22:24:41.314Z,2.80
2022-10-06T22:27:07.945Z,3.47
2022-10-06T22:29:34.554Z,3.63
2022-10-06T22:32:01.172Z,3.60
2022-10-06T22:34:27.903Z,3.00
2022-10-06T22:36:54.521Z,3.10
2022-10-06T22:39:21.108Z,2.80
2022-10-06T22:41:47.684Z,2.63
2022-10-06T22:44:14.278Z,2.40
2022-10-06T22:46:41.186Z,2.65
2022-10-06T22:49:07.954Z,2.45
2022-10-06T22:51:34.891Z,2.17
2022-10-06T22:54:01.624Z,2.25
2022-10-06T22:56:29.287Z,2.33
2022-10-06T22:58:59.710Z,2.03
2022-10-06T23:01:26.977Z,1.95
2022-10-06T23:03:54.643Z,2.22
2022-10-06T23:06:21.227Z,2.05
2022-10-06T23:08:47.848Z,1.80
2022-10-06T23:11:18.662Z,1.77
2022-10-06T23:13:45.323Z,2.17
2022-10-06T23:16:13.468Z,2.00
2022-10-06T23:18:40.730Z,2.20
2022-10-06T23:21:09.167Z,2.25
2022-10-06T23:23:35.816Z,2.25
2022-10-06T23:26:06.961Z,1.95
2022-10-06T23:28:33.665Z,1.98
2022-10-06T23:31:00.305Z,2.03
2022-10-06T23:33:29.599Z,2.00
2022-10-06T23:35:59.943Z,1.80
2022-10-06T23:38:26.618Z,1.70
2022-10-06T23:40:53.820Z,1.83
2022-10-06T23:43:20.932Z,1.60
2022-10-06T23:45:47.550Z,1.63
2022-10-06T23:48:14.448Z,1.73
2022-10-06T23:50:41.128Z,1.63
2022-10-06T23:53:07.859Z,1.50
2022-10-06T23:55:34.544Z,1.25
2022-10-06T23:58:01.141Z,1.27
